Time;durP1;ratioP1;P1;durP2;ratioP2;P2;SDS_P1;SDS_P2;PMS_P1;PMS_P2;Temp;Humidity;BMP_temperature;BMP_pressure;BME280_temperature;BME280_humidity;BME280_pressure;Samples;Min_cycle;Max_cycle;Signal;HPM_P1;HPM_P2
2022/03/21 00:01:34;;;;;;;29.23;14.37;;;-3.10;1.00;;;;;;8439730;28;20223;-64
2022/03/21 00:05:36;;;;;;;31.63;14.53;;;-3.20;1.00;;;;;;8428742;28;20294;-64
2022/03/21 00:09:37;;;;;;;26.40;14.53;;;-3.20;1.00;;;;;;8422618;28;20208;-65
2022/03/21 00:13:38;;;;;;;24.23;12.70;;;-3.10;99.90;;;;;;8424458;28;20264;-65
2022/03/21 00:17:40;;;;;;;33.00;14.03;;;-3.20;99.90;;;;;;8426960;28;20196;-64
2022/03/21 00:21:41;;;;;;;27.97;13.63;;;-3.30;99.90;;;;;;8428281;28;20239;-65
2022/03/21 00:25:42;;;;;;;23.93;13.57;;;-3.40;99.90;;;;;;8423639;28;20210;-65
2022/03/21 00:29:43;;;;;;;23.53;13.27;;;-3.50;99.90;;;;;;8399166;28;20208;-65
2022/03/21 00:33:44;;;;;;;37.07;14.10;;;-3.50;1.00;;;;;;8401818;28;20211;-67
2022/03/21 00:37:46;;;;;;;25.47;14.13;;;-3.50;1.00;;;;;;8409377;28;20312;-64
2022/03/21 00:41:47;;;;;;;29.70;14.00;;;-3.40;1.00;;;;;;8441414;28;20285;-65
2022/03/21 00:45:49;;;;;;;31.80;14.57;;;-3.40;99.90;;;;;;8398927;28;20539;-66
2022/03/21 00:49:52;;;;;;;39.77;18.53;;;-3.50;1.00;;;;;;8410467;28;20230;-66
2022/03/21 00:53:53;;;;;;;29.83;14.80;;;-3.50;99.90;;;;;;8427618;28;20264;-64
2022/03/21 00:57:53;;;;;;;31.23;15.57;;;-3.50;99.90;;;;;;8408716;28;20308;-65
2022/03/21 01:01:54;;;;;;;26.67;13.67;;;-3.60;99.90;;;;;;8403780;28;20246;-65
2022/03/21 01:05:55;;;;;;;24.17;11.60;;;-3.70;99.90;;;;;;8416263;28;20422;-65
2022/03/21 01:09:56;;;;;;;23.70;11.80;;;-3.80;99.90;;;;;;8417865;28;20370;-66
2022/03/21 01:13:57;;;;;;;26.17;12.93;;;-3.90;1.00;;;;;;8418437;28;20218;-69
2022/03/21 01:17:59;;;;;;;24.47;12.33;;;-3.90;1.00;;;;;;8437453;28;20596;-65
2022/03/21 01:22:00;;;;;;;22.87;11.70;;;-4.00;1.00;;;;;;8430912;28;20219;-66
2022/03/21 01:26:00;;;;;;;29.60;12.33;;;-3.90;1.00;;;;;;8428407;28;20210;-66
2022/03/21 01:30:08;;;;;;;24.50;10.90;;;-3.90;1.00;;;;;;8411282;28;20208;-65
2022/03/21 01:34:09;;;;;;;22.23;11.00;;;-3.80;1.00;;;;;;8427725;28;20294;-66
2022/03/21 01:38:09;;;;;;;26.87;11.03;;;-3.70;1.00;;;;;;8408192;28;20236;-66
2022/03/21 01:42:10;;;;;;;23.87;11.10;;;-3.50;99.90;;;;;;8420490;28;20245;-66
2022/03/21 01:46:11;;;;;;;19.90;11.53;;;-3.50;99.90;;;;;;8428098;28;20218;-66
2022/03/21 01:50:14;;;;;;;23.17;11.33;;;-3.50;99.90;;;;;;8415448;28;20211;-71
2022/03/21 01:58:34;;;;;;;23.63;11.60;;;-3.70;99.90;;;;;;8423199;28;20355;-65
2022/03/21 02:02:35;;;;;;;22.83;11.47;;;-3.80;99.90;;;;;;8434127;28;20232;-65
2022/03/21 02:06:36;;;;;;;22.97;11.07;;;-4.00;99.90;;;;;;8405953;28;20218;-65
2022/03/21 02:10:37;;;;;;;24.40;11.77;;;-4.10;1.00;;;;;;8403464;28;20337;-66
2022/03/21 02:14:39;;;;;;;23.60;11.97;;;-4.20;1.00;;;;;;8421172;28;20703;-66
2022/03/21 02:18:43;;;;;;;26.53;11.70;;;-4.40;1.00;;;;;;8415802;28;20213;-66
2022/03/21 02:23:19;;;;;;;22.60;11.13;;;-4.50;99.90;;;;;;8420200;28;20268;-66
2022/03/21 02:27:21;;;;;;;21.57;10.87;;;-4.50;99.90;;;;;;8416541;28;20219;-66
2022/03/21 02:31:24;;;;;;;22.27;10.93;;;-4.60;1.00;;;;;;8432266;28;20212;-66
2022/03/21 02:35:25;;;;;;;22.80;11.03;;;-4.70;1.00;;;;;;8439623;28;20204;-66
2022/03/21 02:39:28;;;;;;;25.73;12.10;;;-4.70;1.00;;;;;;8424493;28;20228;-69
2022/03/21 02:43:28;;;;;;;22.37;10.97;;;-4.70;99.90;;;;;;8428264;28;20215;-66
2022/03/21 02:47:29;;;;;;;26.00;12.20;;;-4.70;99.90;;;;;;8440964;28;20264;-65
2022/03/21 02:51:37;;;;;;;24.30;10.97;;;-4.70;99.90;;;;;;8432395;28;20204;-66
2022/03/21 02:55:41;;;;;;;23.97;12.27;;;-4.80;1.00;;;;;;8427989;28;20240;-66
2022/03/21 02:59:42;;;;;;;22.97;11.43;;;-4.90;99.90;;;;;;8420412;28;20217;-66
2022/03/21 03:03:43;;;;;;;22.57;11.30;;;-4.90;1.00;;;;;;8409016;28;20220;-65
2022/03/21 03:07:44;;;;;;;27.53;11.87;;;-5.00;1.00;;;;;;8433775;28;20458;-66
2022/03/21 03:11:45;;;;;;;20.90;10.50;;;-5.10;18.50;;;;;;8414687;28;20235;-65
2022/03/21 03:15:47;;;;;;;27.63;13.33;;;-5.10;99.90;;;;;;8422682;28;20212;-66
2022/03/21 03:19:48;;;;;;;27.93;12.80;;;-5.10;99.90;;;;;;8429840;28;20226;-66
2022/03/21 03:23:50;;;;;;;28.83;13.40;;;-5.10;99.90;;;;;;8416435;28;20233;-67
2022/03/21 03:27:51;;;;;;;26.60;11.77;;;-5.10;99.90;;;;;;8408430;28;20220;-67
2022/03/21 03:31:52;;;;;;;23.03;12.10;;;-5.10;14.60;;;;;;8417479;28;20213;-67
2022/03/21 03:35:53;;;;;;;32.20;14.33;;;-5.10;99.90;;;;;;8420014;28;20222;-66
2022/03/21 03:39:54;;;;;;;28.40;14.50;;;-5.00;99.90;;;;;;8417720;28;20224;-66
2022/03/21 03:43:56;;;;;;;30.60;14.40;;;-4.90;99.90;;;;;;8426815;28;20242;-66
2022/03/21 03:47:57;;;;;;;29.07;14.10;;;-4.80;1.00;;;;;;8420826;28;20547;-67
2022/03/21 03:51:58;;;;;;;36.70;16.63;;;-4.80;99.90;;;;;;8413454;28;20207;-65
2022/03/21 03:55:58;;;;;;;32.83;15.63;;;-4.70;99.90;;;;;;8437854;28;20208;-67
2022/03/21 03:59:59;;;;;;;23.20;13.03;;;-4.70;37.20;;;;;;8422570;28;20269;-67
2022/03/21 04:04:00;;;;;;;34.03;16.20;;;-4.60;1.00;;;;;;8414724;28;20243;-65
2022/03/21 04:08:01;;;;;;;28.90;15.20;;;-4.50;99.90;;;;;;8405224;28;20199;-67
2022/03/21 04:12:03;;;;;;;30.37;15.13;;;-4.40;6.10;;;;;;8451508;28;20280;-66
2022/03/21 04:16:04;;;;;;;28.33;16.07;;;-4.50;1.00;;;;;;8430999;28;20216;-67
2022/03/21 04:20:06;;;;;;;28.70;16.20;;;-4.40;1.00;;;;;;8398442;28;20245;-67
2022/03/21 04:24:07;;;;;;;38.63;21.30;;;-4.40;1.00;;;;;;8400877;28;20220;-67
2022/03/21 04:28:09;;;;;;;53.67;27.70;;;-4.40;1.00;;;;;;8400657;28;20218;-67
2022/03/21 04:32:10;;;;;;;74.90;35.13;;;-4.50;1.00;;;;;;8409476;28;20204;-67
2022/03/21 04:36:13;;;;;;;40.27;19.53;;;-4.50;1.00;;;;;;8422341;28;20218;-66
2022/03/21 04:40:14;;;;;;;34.30;17.90;;;-4.50;1.00;;;;;;8431515;28;20312;-65
2022/03/21 04:44:14;;;;;;;34.80;17.73;;;-4.40;1.00;;;;;;8403476;28;20210;-64
2022/03/21 04:48:16;;;;;;;35.83;19.00;;;-4.30;1.00;;;;;;8419418;28;20610;-66
2022/03/21 04:52:16;;;;;;;32.00;18.73;;;-4.30;99.90;;;;;;8410984;28;20205;-67
2022/03/21 04:56:17;;;;;;;30.77;16.93;;;-4.40;99.90;;;;;;8411180;28;20209;-65
2022/03/21 05:00:18;;;;;;;64.70;21.57;;;-4.40;99.90;;;;;;8423836;28;20208;-66
2022/03/21 05:04:19;;;;;;;177.23;60.73;;;-4.40;99.90;;;;;;8421743;28;20208;-66
2022/03/21 05:08:21;;;;;;;53.10;29.73;;;-4.30;99.90;;;;;;8419421;28;20206;-64
2022/03/21 05:12:23;;;;;;;133.47;45.33;;;-4.30;99.90;;;;;;8401267;28;20207;-69
2022/03/21 05:16:24;;;;;;;104.13;31.73;;;-4.30;99.90;;;;;;8411699;28;20225;-66
2022/03/21 05:20:25;;;;;;;67.10;23.93;;;-4.30;99.90;;;;;;8423741;28;20221;-65
2022/03/21 05:37:24;;;;;;;36.60;16.27;;;-4.10;47.40;;;;;;8424088;28;20253;-66
2022/03/21 05:41:25;;;;;;;41.90;18.43;;;-3.90;35.30;;;;;;8403310;28;20223;-66
2022/03/21 05:45:28;;;;;;;42.33;18.57;;;-3.70;1.00;;;;;;8413422;28;20207;-65
2022/03/21 05:49:28;;;;;;;35.73;18.63;;;-3.40;99.90;;;;;;8424480;28;20199;-66
2022/03/21 05:53:30;;;;;;;39.60;20.53;;;-3.20;91.50;;;;;;8411232;28;20274;-67
2022/03/21 05:57:30;;;;;;;44.70;20.07;;;-3.00;1.00;;;;;;8397215;28;20286;-67
2022/03/21 06:01:31;;;;;;;38.67;20.00;;;-2.80;99.90;;;;;;8425850;28;20320;-67
2022/03/21 06:05:32;;;;;;;62.40;24.00;;;-2.60;99.90;;;;;;8432075;28;20211;-67
2022/03/21 06:09:33;;;;;;;72.10;26.53;;;-2.40;99.90;;;;;;8436385;28;20227;-70
2022/03/21 06:13:36;;;;;;;63.53;23.87;;;-2.20;99.90;;;;;;8419233;28;20378;-68
2022/03/21 06:17:42;;;;;;;49.90;20.80;;;-2.00;1.00;;;;;;8422078;28;20212;-69
2022/03/21 06:21:43;;;;;;;61.40;25.83;;;-1.60;1.00;;;;;;8403124;28;20228;-66
2022/03/21 06:25:44;;;;;;;52.23;20.67;;;-1.30;99.90;;;;;;8428799;28;20278;-67
2022/03/21 06:29:45;;;;;;;34.30;14.03;;;-0.80;1.00;;;;;;8435434;28;20207;-68
2022/03/21 06:33:45;;;;;;;37.73;17.33;;;-0.50;99.90;;;;;;8411053;28;20232;-68
2022/03/21 06:37:47;;;;;;;27.20;14.17;;;-0.10;99.90;;;;;;8423324;28;20198;-69
2022/03/21 06:41:51;;;;;;;28.17;13.10;;;0.30;99.90;;;;;;8402765;28;20224;-68
2022/03/21 06:45:52;;;;;;;25.07;12.43;;;0.60;41.80;;;;;;8427668;28;20203;-67
2022/03/21 06:49:53;;;;;;;39.50;19.63;;;0.90;1.00;;;;;;8416455;28;20205;-65
2022/03/21 06:53:54;;;;;;;37.83;16.07;;;1.20;1.00;;;;;;8402528;28;20207;-66
2022/03/21 06:57:55;;;;;;;27.77;13.03;;;1.50;1.00;;;;;;8415240;28;20205;-64
2022/03/21 07:01:57;;;;;;;23.83;11.83;;;1.80;1.00;;;;;;8422947;28;21134;-65
2022/03/21 07:05:58;;;;;;;31.33;14.60;;;2.10;1.00;;;;;;8413757;28;20245;-64
2022/03/21 07:09:59;;;;;;;24.83;13.77;;;2.40;1.00;;;;;;8419404;28;20195;-68
2022/03/21 07:14:00;;;;;;;21.30;11.30;;;2.60;1.00;;;;;;8411851;28;20207;-67
2022/03/21 07:18:01;;;;;;;17.67;11.43;;;2.90;99.90;;;;;;8434858;28;20200;-68
2022/03/21 07:22:01;;;;;;;21.87;11.10;;;3.20;99.90;;;;;;8422673;28;20643;-65
2022/03/21 07:26:02;;;;;;;18.57;10.03;;;3.50;99.90;;;;;;8438059;28;20273;-65
2022/03/21 07:30:07;;;;;;;22.17;10.53;;;3.80;99.90;;;;;;8425693;28;20203;-68
2022/03/21 07:34:08;;;;;;;19.83;10.83;;;4.10;99.90;;;;;;8437275;28;20208;-68
2022/03/21 07:38:09;;;;;;;25.30;12.03;;;4.30;99.90;;;;;;8421822;28;20227;-64
2022/03/21 07:42:15;;;;;;;19.70;10.83;;;4.50;99.90;;;;;;8418418;28;20221;-67
2022/03/21 07:50:35;;;;;;;19.60;10.20;;;5.00;99.90;;;;;;8435072;28;20260;-64
2022/03/21 07:54:36;;;;;;;14.97;9.83;;;5.20;99.90;;;;;;8422571;28;20206;-65
2022/03/21 07:58:37;;;;;;;18.03;10.50;;;5.50;99.90;;;;;;8445802;28;20203;-63
2022/03/21 08:02:37;;;;;;;18.10;9.70;;;5.70;99.90;;;;;;8409958;28;20224;-64
2022/03/21 08:06:38;;;;;;;18.63;11.10;;;5.80;99.90;;;;;;8401338;28;20215;-64
2022/03/21 08:10:39;;;;;;;19.40;10.13;;;6.00;99.90;;;;;;8401562;28;20388;-64
2022/03/21 08:14:40;;;;;;;17.80;10.87;;;6.10;99.90;;;;;;8428112;28;20265;-65
2022/03/21 08:18:40;;;;;;;19.67;11.53;;;6.20;99.90;;;;;;8446977;28;20537;-64
2022/03/21 08:22:43;;;;;;;14.07;9.50;;;6.40;99.90;;;;;;8423439;28;20319;-63
2022/03/21 08:26:44;;;;;;;14.07;8.97;;;6.60;99.90;;;;;;8420236;28;20188;-62
2022/03/21 08:30:45;;;;;;;15.70;9.47;;;6.80;99.90;;;;;;8408918;28;20253;-64
2022/03/21 08:34:45;;;;;;;16.90;9.97;;;6.90;99.90;;;;;;8429412;28;20463;-64
2022/03/21 08:38:47;;;;;;;16.90;10.50;;;7.10;99.90;;;;;;8442494;28;20207;-65
2022/03/21 08:42:49;;;;;;;19.17;11.10;;;7.40;99.90;;;;;;8416734;28;20448;-67
2022/03/21 08:46:50;;;;;;;17.00;11.50;;;7.50;99.90;;;;;;8435731;28;20208;-64
2022/03/21 08:50:50;;;;;;;17.13;10.10;;;7.70;99.90;;;;;;8419986;28;20212;-64
2022/03/21 08:54:51;;;;;;;18.57;11.03;;;7.80;99.90;;;;;;8419051;28;20199;-65
2022/03/21 08:58:52;;;;;;;19.63;10.90;;;8.00;99.90;;;;;;8414001;28;20204;-64
2022/03/21 09:02:54;;;;;;;18.83;10.27;;;8.20;99.90;;;;;;8399049;28;20239;-66
2022/03/21 09:06:55;;;;;;;18.97;11.27;;;8.20;99.90;;;;;;8419676;28;20207;-64
2022/03/21 09:10:56;;;;;;;17.37;11.37;;;8.30;99.90;;;;;;8400860;28;20336;-65
2022/03/21 09:14:57;;;;;;;17.03;10.33;;;8.40;99.90;;;;;;8409810;28;20212;-64
2022/03/21 09:18:58;;;;;;;14.47;9.67;;;8.50;99.90;;;;;;8406149;28;20240;-65
2022/03/21 09:23:00;;;;;;;14.90;10.57;;;8.70;99.90;;;;;;8415495;28;20628;-65
2022/03/21 09:27:00;;;;;;;18.77;10.47;;;8.80;99.90;;;;;;8407541;28;20215;-67
2022/03/21 09:31:01;;;;;;;17.07;10.03;;;9.00;99.90;;;;;;8423406;28;20219;-67
2022/03/21 09:35:05;;;;;;;18.03;10.70;;;9.10;99.90;;;;;;8429317;28;20512;-67
2022/03/21 09:39:07;;;;;;;18.50;10.63;;;9.20;96.60;;;;;;8457339;28;20206;-66
2022/03/21 09:43:08;;;;;;;15.50;10.47;;;9.30;95.50;;;;;;8445753;28;20226;-67
2022/03/21 09:51:31;;;;;;;14.60;9.50;;;9.50;92.20;;;;;;8423484;28;20223;-64
2022/03/21 09:55:32;;;;;;;16.47;10.13;;;9.50;90.80;;;;;;8422805;28;20200;-67
2022/03/21 09:59:33;;;;;;;12.53;9.47;;;9.70;91.70;;;;;;8404493;28;20247;-65
2022/03/21 10:03:35;;;;;;;16.60;10.67;;;9.80;90.40;;;;;;8431049;28;20216;-65
2022/03/21 10:07:36;;;;;;;18.17;8.63;;;9.90;83.50;;;;;;8403154;28;20520;-68
2022/03/21 10:11:39;;;;;;;11.93;8.07;;;10.10;81.70;;;;;;8426232;28;20204;-64
2022/03/21 10:15:40;;;;;;;10.43;7.47;;;10.20;68.30;;;;;;8430018;28;20235;-66
2022/03/21 10:19:49;;;;;;;9.33;6.90;;;10.30;59.60;;;;;;8411896;28;20516;-64
2022/03/21 10:24:06;;;;;;;12.77;7.63;;;10.40;51.40;;;;;;8433864;28;20615;-67
2022/03/21 10:28:07;;;;;;;11.80;7.43;;;10.60;48.30;;;;;;8410211;28;20223;-64
2022/03/21 10:32:08;;;;;;;12.50;8.00;;;10.70;43.00;;;;;;8404923;28;20212;-66
2022/03/21 10:36:12;;;;;;;9.83;7.07;;;10.90;40.30;;;;;;8444370;28;20208;-65
2022/03/21 10:40:24;;;;;;;8.47;6.40;;;11.00;31.60;;;;;;8407817;28;20302;-65
2022/03/21 10:44:25;;;;;;;10.03;6.63;;;11.10;28.10;;;;;;8435421;28;20371;-64
2022/03/21 10:48:26;;;;;;;9.57;7.10;;;11.10;27.20;;;;;;8408272;28;20221;-66
2022/03/21 10:52:27;;;;;;;9.10;6.13;;;11.30;23.90;;;;;;8442957;28;20239;-64
2022/03/21 10:56:39;;;;;;;10.50;6.40;;;11.30;22.70;;;;;;8436128;28;20201;-65
2022/03/21 11:00:41;;;;;;;10.43;6.43;;;11.30;19.60;;;;;;8430252;28;20220;-63
2022/03/21 11:04:44;;;;;;;8.37;6.23;;;11.40;18.80;;;;;;8420902;28;20256;-65
2022/03/21 11:08:51;;;;;;;10.57;6.83;;;11.50;16.60;;;;;;8421879;28;20293;-64
2022/03/21 11:12:54;;;;;;;11.70;6.97;;;11.60;15.10;;;;;;8405000;28;20211;-68
2022/03/21 11:16:56;;;;;;;9.50;6.30;;;11.70;17.00;;;;;;8412047;28;20348;-66
2022/03/21 11:20:58;;;;;;;12.30;7.10;;;11.80;15.60;;;;;;8436491;28;20227;-67
2022/03/21 11:25:11;;;;;;;9.20;6.47;;;11.90;15.80;;;;;;8425813;28;20220;-65
2022/03/21 11:29:41;;;;;;;13.23;6.67;;;12.00;12.70;;;;;;8419953;28;20211;-64
2022/03/21 11:33:47;;;;;;;12.80;7.83;;;12.10;9.70;;;;;;8412396;28;20669;-64
2022/03/21 11:37:48;;;;;;;12.50;7.50;;;12.00;7.60;;;;;;8416995;28;20280;-67
2022/03/21 11:42:00;;;;;;;14.97;7.37;;;12.00;8.20;;;;;;8412696;28;20231;-67
2022/03/21 11:46:29;;;;;;;11.90;6.80;;;12.20;7.50;;;;;;8421141;28;21295;-63
2022/03/21 11:50:30;;;;;;;12.67;6.13;;;12.40;6.80;;;;;;8430441;28;20260;-68
2022/03/21 11:54:33;;;;;;;12.23;7.03;;;12.40;3.10;;;;;;8420286;28;20204;-64
2022/03/21 11:58:36;;;;;;;9.63;6.47;;;12.50;14.80;;;;;;8416461;28;20266;-67
2022/03/21 12:02:37;;;;;;;9.83;6.17;;;12.50;1.00;;;;;;8418279;28;20230;-68
2022/03/21 12:06:38;;;;;;;8.87;5.93;;;12.50;1.00;;;;;;8414739;28;20236;-64
2022/03/21 12:10:39;;;;;;;10.33;7.13;;;12.60;1.00;;;;;;8434602;28;20217;-69
2022/03/21 12:14:45;;;;;;;11.67;6.60;;;12.60;1.00;;;;;;8407048;28;20211;-67
2022/03/21 12:19:01;;;;;;;8.77;6.43;;;12.60;1.00;;;;;;8432980;28;20210;-66
2022/03/21 12:23:22;;;;;;;10.47;7.30;;;12.60;1.00;;;;;;8403917;28;20248;-68
2022/03/21 12:27:44;;;;;;;12.57;7.87;;;12.70;1.00;;;;;;8409175;28;20207;-65
2022/03/21 12:31:45;;;;;;;10.57;6.57;;;12.60;1.00;;;;;;8415116;28;20218;-65
2022/03/21 12:35:46;;;;;;;11.80;6.63;;;12.60;1.00;;;;;;8449683;28;20396;-65
2022/03/21 12:39:47;;;;;;;9.00;6.73;;;12.70;1.00;;;;;;8410410;28;20222;-65
2022/03/21 12:43:52;;;;;;;9.83;6.20;;;12.80;1.00;;;;;;8414067;28;20210;-65
2022/03/21 12:48:00;;;;;;;10.20;6.63;;;12.70;1.00;;;;;;8411849;28;20205;-67
2022/03/21 12:52:00;;;;;;;9.87;6.47;;;12.70;32.30;;;;;;8436358;28;20200;-64
2022/03/21 12:56:04;;;;;;;11.20;7.00;;;12.70;24.20;;;;;;8423820;28;20682;-66
2022/03/21 13:00:18;;;;;;;9.33;6.13;;;12.80;20.80;;;;;;8421956;28;20219;-64
2022/03/21 13:13:19;;;;;;;11.30;6.80;;;12.90;23.40;;;;;;8420617;28;20218;-67
2022/03/21 13:17:20;;;;;;;9.87;6.67;;;13.00;13.80;;;;;;8422086;28;20227;-68
2022/03/21 13:21:21;;;;;;;9.00;6.83;;;13.00;13.30;;;;;;8419675;28;20215;-65
2022/03/21 13:25:36;;;;;;;10.33;6.77;;;13.10;12.60;;;;;;8454540;28;20199;-66
2022/03/21 13:29:40;;;;;;;7.93;6.40;;;13.10;10.60;;;;;;8435904;28;20203;-66
2022/03/21 13:33:49;;;;;;;8.67;5.73;;;13.10;9.60;;;;;;8450808;28;20209;-64
2022/03/21 13:38:04;;;;;;;10.50;6.83;;;13.10;10.30;;;;;;8427115;28;20205;-65
2022/03/21 13:42:07;;;;;;;8.83;6.93;;;13.10;9.50;;;;;;8433703;28;20248;-64
2022/03/21 13:46:09;;;;;;;9.10;6.47;;;13.10;9.00;;;;;;8434320;28;20227;-65
2022/03/21 13:50:11;;;;;;;9.53;6.57;;;13.10;7.80;;;;;;8422334;28;20205;-69
2022/03/21 13:54:14;;;;;;;9.83;7.20;;;13.10;6.70;;;;;;8450192;28;20295;-68
2022/03/21 13:58:27;;;;;;;11.73;7.43;;;13.10;5.70;;;;;;8416409;28;20201;-66
2022/03/21 14:02:29;;;;;;;11.93;7.00;;;13.10;6.30;;;;;;8411740;28;20427;-68
2022/03/21 14:06:30;;;;;;;9.63;6.33;;;13.10;5.90;;;;;;8421327;28;20210;-69
2022/03/21 14:10:40;;;;;;;13.73;7.60;;;13.00;4.70;;;;;;8420847;28;20233;-65
2022/03/21 14:14:41;;;;;;;8.57;6.73;;;13.10;4.40;;;;;;8421083;28;20200;-66
2022/03/21 14:18:56;;;;;;;13.63;7.97;;;13.00;3.80;;;;;;8416897;28;20207;-66
2022/03/21 14:22:57;;;;;;;11.73;7.60;;;13.00;5.00;;;;;;8424180;28;20219;-65
2022/03/21 14:26:58;;;;;;;12.67;8.30;;;13.00;5.20;;;;;;8419194;28;20200;-66
2022/03/21 14:31:01;;;;;;;15.30;8.23;;;13.00;4.70;;;;;;8416823;28;20348;-65
2022/03/21 14:35:02;;;;;;;9.90;7.30;;;13.00;17.70;;;;;;8426685;28;20199;-68
2022/03/21 14:39:03;;;;;;;21.47;10.83;;;13.00;4.70;;;;;;8445316;28;20199;-66
2022/03/21 14:43:08;;;;;;;14.77;9.40;;;13.00;5.30;;;;;;8433749;28;20230;-66
2022/03/21 14:47:09;;;;;;;19.13;12.87;;;12.90;5.60;;;;;;8434730;28;20241;-68
2022/03/21 14:51:10;;;;;;;20.97;12.77;;;12.90;6.80;;;;;;8431428;28;20204;-68
2022/03/21 14:55:11;;;;;;;14.87;8.93;;;12.80;6.00;;;;;;8420708;28;20206;-69
2022/03/21 14:59:11;;;;;;;14.70;9.03;;;12.80;7.00;;;;;;8419816;28;20208;-69
2022/03/21 15:03:13;;;;;;;11.77;8.60;;;12.70;8.40;;;;;;8408093;28;20247;-68
2022/03/21 15:07:14;;;;;;;15.00;9.73;;;12.70;8.50;;;;;;8411458;28;20211;-66
2022/03/21 15:11:15;;;;;;;17.17;8.30;;;12.70;9.50;;;;;;8414241;28;20232;-68
2022/03/21 15:15:16;;;;;;;11.93;6.83;;;12.60;9.20;;;;;;8419861;28;20203;-66
2022/03/21 15:19:17;;;;;;;12.00;7.93;;;12.60;9.80;;;;;;8415461;28;20203;-66
2022/03/21 15:23:18;;;;;;;14.67;8.37;;;12.60;10.70;;;;;;8445295;28;20225;-69
2022/03/21 15:27:18;;;;;;;10.23;7.80;;;12.50;12.50;;;;;;8429410;28;20277;-68
2022/03/21 15:31:19;;;;;;;11.17;7.27;;;12.50;14.00;;;;;;8422097;28;20251;-66
2022/03/21 15:35:20;;;;;;;10.43;7.40;;;12.50;13.90;;;;;;8413917;28;20280;-67
2022/03/21 15:43:40;;;;;;;8.93;6.80;;;12.30;16.30;;;;;;8431835;28;20266;-66
2022/03/21 15:47:42;;;;;;;13.43;9.23;;;12.20;17.30;;;;;;8413425;28;20212;-66
2022/03/21 15:51:43;;;;;;;14.03;8.70;;;12.20;17.60;;;;;;8426324;28;20214;-67
2022/03/21 15:55:44;;;;;;;8.80;6.83;;;12.00;18.90;;;;;;8414076;28;20215;-66
2022/03/21 15:59:45;;;;;;;11.20;7.90;;;12.00;18.50;;;;;;8401824;28;20219;-68
2022/03/21 16:03:50;;;;;;;16.90;9.03;;;11.80;19.30;;;;;;8420499;28;20285;-68
2022/03/21 16:07:51;;;;;;;12.30;8.30;;;11.80;19.40;;;;;;8407772;28;20201;-67
2022/03/21 16:11:53;;;;;;;14.17;10.23;;;11.70;20.70;;;;;;8425097;28;20212;-67
2022/03/21 16:15:55;;;;;;;11.77;7.13;;;11.60;22.10;;;;;;8405278;28;20203;-69
2022/03/21 16:19:55;;;;;;;9.80;7.20;;;11.40;22.10;;;;;;8429247;28;20213;-68
2022/03/21 16:23:56;;;;;;;10.23;6.93;;;11.30;23.00;;;;;;8406696;28;20600;-69
2022/03/21 16:27:57;;;;;;;10.70;7.43;;;11.20;23.90;;;;;;8408902;28;20209;-65
2022/03/21 16:32:06;;;;;;;11.43;7.50;;;11.00;26.20;;;;;;8415596;28;20250;-67
2022/03/21 16:36:10;;;;;;;9.77;6.70;;;10.90;28.90;;;;;;8408814;28;20220;-69
2022/03/21 16:40:12;;;;;;;11.83;7.77;;;10.80;30.00;;;;;;8402707;28;20334;-68
2022/03/21 16:44:13;;;;;;;9.07;6.47;;;10.60;30.00;;;;;;8418673;28;20212;-66
2022/03/21 16:48:14;;;;;;;9.43;7.07;;;10.40;31.60;;;;;;8411752;28;20535;-66
2022/03/21 16:52:16;;;;;;;10.63;8.20;;;10.30;33.30;;;;;;8443031;28;20214;-67
2022/03/21 16:56:18;;;;;;;13.37;7.80;;;10.10;34.60;;;;;;8411550;28;20203;-69
2022/03/21 17:00:19;;;;;;;11.03;7.33;;;9.90;37.90;;;;;;8408799;28;20302;-69
2022/03/21 17:04:20;;;;;;;24.93;17.10;;;9.70;41.40;;;;;;8420572;28;20212;-68
2022/03/21 17:08:23;;;;;;;25.07;17.07;;;9.40;45.60;;;;;;8420765;28;20195;-70
2022/03/21 17:12:24;;;;;;;13.67;9.57;;;9.10;50.00;;;;;;8405089;28;20598;-69
2022/03/21 17:16:25;;;;;;;13.63;8.80;;;9.00;55.20;;;;;;8410824;28;20200;-67
2022/03/21 17:24:47;;;;;;;15.20;9.20;;;8.40;71.20;;;;;;8417928;28;20277;-69
2022/03/21 17:28:49;;;;;;;16.23;9.53;;;8.00;85.60;;;;;;8400158;28;20218;-69
2022/03/21 17:32:50;;;;;;;14.50;9.77;;;7.70;93.40;;;;;;8404449;28;20216;-69
2022/03/21 17:36:51;;;;;;;15.57;10.20;;;7.40;99.90;;;;;;8408764;28;20235;-70
2022/03/21 17:40:53;;;;;;;21.33;12.70;;;7.10;99.90;;;;;;8429518;28;20312;-69
2022/03/21 17:44:55;;;;;;;24.30;13.70;;;6.90;99.90;;;;;;8407835;28;20277;-70
2022/03/21 17:48:57;;;;;;;18.47;11.60;;;6.70;99.90;;;;;;8433177;28;20587;-67
2022/03/21 17:52:59;;;;;;;14.57;8.87;;;6.60;99.90;;;;;;8443933;28;20196;-70
2022/03/21 17:57:01;;;;;;;16.30;9.77;;;6.50;99.90;;;;;;8433079;28;20189;-69
2022/03/21 18:01:03;;;;;;;14.27;8.53;;;6.40;99.90;;;;;;8427617;28;20219;-69
2022/03/21 18:05:05;;;;;;;13.70;8.13;;;6.20;99.90;;;;;;8420326;28;20203;-68
2022/03/21 18:09:06;;;;;;;12.07;8.53;;;6.00;99.90;;;;;;8418130;28;20239;-69
2022/03/21 18:13:08;;;;;;;13.30;7.63;;;5.80;99.90;;;;;;8414078;28;20198;-68
2022/03/21 18:17:09;;;;;;;10.90;7.03;;;5.50;99.90;;;;;;8430767;28;20230;-69
2022/03/21 18:21:10;;;;;;;10.20;6.50;;;5.20;99.90;;;;;;8414730;28;20593;-67
2022/03/21 18:25:11;;;;;;;11.13;6.20;;;5.00;99.90;;;;;;8435181;28;20211;-68
2022/03/21 18:29:12;;;;;;;11.20;7.17;;;4.70;99.90;;;;;;8416883;28;20196;-68
2022/03/21 18:33:13;;;;;;;11.90;6.93;;;4.40;99.90;;;;;;8437434;28;20193;-66
2022/03/21 18:37:14;;;;;;;11.73;6.77;;;4.20;99.90;;;;;;8434549;28;20209;-68
2022/03/21 18:41:16;;;;;;;10.77;7.13;;;4.00;99.90;;;;;;8416174;28;20248;-69
2022/03/21 18:45:20;;;;;;;12.83;7.30;;;3.80;99.90;;;;;;8424250;28;20238;-69
2022/03/21 18:49:21;;;;;;;18.27;11.43;;;3.70;99.90;;;;;;8434198;28;20196;-70
2022/03/21 18:53:22;;;;;;;28.87;18.77;;;3.60;99.90;;;;;;8421750;28;20199;-67
2022/03/21 18:57:23;;;;;;;54.93;24.70;;;3.50;99.90;;;;;;8437733;28;20203;-69
2022/03/21 19:01:24;;;;;;;65.07;28.40;;;3.40;99.90;;;;;;8410230;28;20534;-67
2022/03/21 19:05:28;;;;;;;68.13;31.47;;;3.30;99.90;;;;;;8413011;28;20282;-69
2022/03/21 19:09:33;;;;;;;94.23;39.60;;;3.20;99.90;;;;;;8422704;28;20275;-68
2022/03/21 19:13:35;;;;;;;175.43;66.63;;;3.10;99.90;;;;;;8411780;28;20215;-73
2022/03/21 19:17:36;;;;;;;152.73;50.43;;;3.10;99.90;;;;;;8427678;28;20246;-68
2022/03/21 19:21:37;;;;;;;275.63;80.30;;;3.30;99.90;;;;;;8406485;28;20563;-66
2022/03/21 19:25:40;;;;;;;158.73;50.53;;;3.30;99.90;;;;;;8423321;28;20282;-67
2022/03/21 19:29:41;;;;;;;54.43;20.17;;;3.10;99.90;;;;;;8431391;28;20324;-66
2022/03/21 19:33:42;;;;;;;20.80;9.90;;;2.80;1.00;;;;;;8409562;28;20207;-67
2022/03/21 19:37:43;;;;;;;19.77;9.33;;;2.50;1.00;;;;;;8414134;28;20199;-68
2022/03/21 19:41:44;;;;;;;19.40;9.73;;;2.30;1.00;;;;;;8439774;28;20580;-66
2022/03/21 19:45:47;;;;;;;16.30;9.03;;;2.10;1.00;;;;;;8408112;28;20249;-68
2022/03/21 19:49:48;;;;;;;28.70;12.70;;;1.90;1.00;;;;;;8434773;28;20291;-66
2022/03/21 19:53:51;;;;;;;167.17;57.53;;;1.80;1.00;;;;;;8421880;28;20206;-67
2022/03/21 19:57:52;;;;;;;197.83;67.37;;;1.80;1.00;;;;;;8421993;28;20236;-68
2022/03/21 20:01:53;;;;;;;166.20;55.73;;;1.80;1.00;;;;;;8440589;28;20225;-66
2022/03/21 20:05:54;;;;;;;167.37;57.77;;;1.70;1.00;;;;;;8436076;28;20206;-69
2022/03/21 20:09:55;;;;;;;156.33;53.60;;;1.60;1.00;;;;;;8404097;28;20216;-69
2022/03/21 20:13:56;;;;;;;57.77;28.00;;;1.60;1.00;;;;;;8404085;28;20204;-67
2022/03/21 20:17:57;;;;;;;89.13;42.57;;;1.70;13.90;;;;;;8429202;28;20247;-67
2022/03/21 20:21:58;;;;;;;126.97;53.07;;;1.60;1.00;;;;;;8400353;28;20223;-66
2022/03/21 20:25:59;;;;;;;129.27;48.83;;;1.50;5.10;;;;;;8408930;28;20260;-66
2022/03/21 20:30:02;;;;;;;121.37;46.13;;;1.20;21.70;;;;;;8400521;28;20304;-67
2022/03/21 20:34:04;;;;;;;68.83;28.20;;;0.90;74.60;;;;;;8430163;28;20193;-66
2022/03/21 20:38:05;;;;;;;37.53;17.97;;;0.50;99.90;;;;;;8410042;28;20286;-66
2022/03/21 20:42:08;;;;;;;47.83;24.40;;;0.30;99.90;;;;;;8448942;28;20267;-65
2022/03/21 20:46:09;;;;;;;61.73;29.90;;;0.20;99.90;;;;;;8411405;28;20198;-67
2022/03/21 20:50:10;;;;;;;43.67;21.63;;;0.00;99.90;;;;;;8397818;28;20682;-67
2022/03/21 20:54:11;;;;;;;33.03;15.03;;;-0.20;99.90;;;;;;8422634;28;20203;-67
2022/03/21 20:58:13;;;;;;;30.10;15.27;;;-0.30;99.90;;;;;;8418181;28;20272;-68
2022/03/21 21:02:14;;;;;;;27.67;13.43;;;-0.50;99.90;;;;;;8445429;28;20223;-67
2022/03/21 21:06:15;;;;;;;21.10;11.70;;;-0.70;1.00;;;;;;8427238;28;20197;-66
2022/03/21 21:14:35;;;;;;;29.17;16.63;;;-0.90;1.00;;;;;;8427095;28;20234;-65
2022/03/21 21:18:36;;;;;;;35.67;17.67;;;-1.00;55.50;;;;;;8427818;28;20288;-66
2022/03/21 21:22:37;;;;;;;30.37;15.03;;;-1.00;1.00;;;;;;8416776;28;20231;-67
2022/03/21 21:26:38;;;;;;;27.30;13.80;;;-1.10;1.00;;;;;;8426627;28;20214;-67
2022/03/21 21:30:40;;;;;;;24.50;13.53;;;-1.20;1.00;;;;;;8400080;28;20290;-66
2022/03/21 21:34:41;;;;;;;25.33;12.40;;;-1.40;1.00;;;;;;8418107;28;20212;-66